Time;durP1;ratioP1;P1;durP2;ratioP2;P2;SDS_P1;SDS_P2;PMS_P1;PMS_P2;Temp;Humidity;BMP_temperature;BMP_pressure;BME280_temperature;BME280_humidity;BME280_pressure;Samples;Min_cycle;Max_cycle;Signal;HPM_P1;HPM_P2
2024/01/02 00:02:24;;;;;;;3.53;1.10;;;;;;;;;;5093794;28;20771;-69
2024/01/02 00:04:50;;;;;;;1.70;0.70;;;;;;;;;;5093669;28;20590;-68
2024/01/02 00:07:15;;;;;;;4.78;0.98;;;;;;;;;;5094024;28;20766;-69
2024/01/02 00:09:41;;;;;;;2.05;0.55;;;;;;;;;;5094212;28;20081;-69
2024/01/02 00:12:07;;;;;;;2.47;0.90;;;;;;;;;;5073417;28;20043;-69
2024/01/02 00:14:33;;;;;;;1.67;0.60;;;;;;;;;;5093646;28;20070;-69
2024/01/02 00:16:58;;;;;;;3.03;0.60;;;;;;;;;;5090512;28;20051;-69
2024/01/02 00:19:23;;;;;;;2.03;0.53;;;;;;;;;;5092689;28;20016;-69
2024/01/02 00:21:48;;;;;;;2.03;0.70;;;;;;;;;;5093931;28;20273;-69
2024/01/02 00:24:14;;;;;;;2.47;0.60;;;;;;;;;;5093676;28;20382;-69
2024/01/02 00:26:40;;;;;;;1.20;0.40;;;;;;;;;;5076283;28;20047;-69
2024/01/02 00:29:05;;;;;;;2.55;0.80;;;;;;;;;;5094133;28;20305;-69
2024/01/02 00:31:30;;;;;;;4.10;0.60;;;;;;;;;;5093977;28;20491;-69
2024/01/02 00:33:55;;;;;;;2.13;0.70;;;;;;;;;;5093475;28;20087;-69
2024/01/02 00:36:21;;;;;;;3.20;0.73;;;;;;;;;;5093049;28;20035;-69
2024/01/02 00:38:46;;;;;;;3.20;0.77;;;;;;;;;;5086386;28;20302;-69
2024/01/02 00:41:11;;;;;;;1.63;0.83;;;;;;;;;;5074088;28;20297;-69
2024/01/02 00:43:36;;;;;;;3.58;0.70;;;;;;;;;;5070041;28;20302;-69
2024/01/02 00:46:02;;;;;;;2.78;0.50;;;;;;;;;;5092110;28;20264;-69
2024/01/02 00:48:28;;;;;;;1.95;0.52;;;;;;;;;;5092641;28;20028;-69
2024/01/02 00:50:53;;;;;;;2.77;0.70;;;;;;;;;;5091153;28;20016;-69
2024/01/02 00:53:19;;;;;;;4.77;0.53;;;;;;;;;;5092134;28;20270;-69
2024/01/02 00:55:44;;;;;;;1.10;0.45;;;;;;;;;;5092419;28;20281;-69
2024/01/02 00:58:09;;;;;;;1.95;0.40;;;;;;;;;;5085298;28;20474;-69
2024/01/02 01:00:35;;;;;;;2.33;0.50;;;;;;;;;;5092466;28;20073;-68
2024/01/02 01:03:00;;;;;;;0.87;0.40;;;;;;;;;;5092621;28;20335;-68
2024/01/02 01:05:26;;;;;;;3.10;0.60;;;;;;;;;;5077423;28;20270;-69
2024/01/02 01:07:51;;;;;;;1.27;0.40;;;;;;;;;;5092781;28;20028;-69
2024/01/02 01:10:16;;;;;;;3.60;0.30;;;;;;;;;;5092736;28;20028;-68
2024/01/02 01:12:42;;;;;;;0.68;0.30;;;;;;;;;;5092926;28;20054;-69
2024/01/02 01:15:07;;;;;;;1.17;0.32;;;;;;;;;;5092258;28;20059;-69
2024/01/02 01:17:32;;;;;;;0.68;0.28;;;;;;;;;;5086659;28;20386;-69
2024/01/02 01:19:58;;;;;;;0.60;0.20;;;;;;;;;;5084722;28;20394;-69
2024/01/02 01:22:23;;;;;;;4.70;0.30;;;;;;;;;;5091927;28;20597;-69
2024/01/02 01:24:48;;;;;;;1.13;0.30;;;;;;;;;;5092979;28;20707;-69
2024/01/02 01:27:13;;;;;;;0.63;0.28;;;;;;;;;;5091848;28;20103;-69
2024/01/02 01:29:39;;;;;;;0.65;0.20;;;;;;;;;;5092457;28;20043;-69
2024/01/02 01:32:04;;;;;;;1.10;0.37;;;;;;;;;;5092939;28;20032;-69
2024/01/02 01:34:29;;;;;;;0.40;0.22;;;;;;;;;;5092521;28;20417;-69
2024/01/02 01:36:55;;;;;;;0.43;0.15;;;;;;;;;;5092234;28;20459;-69
2024/01/02 01:39:20;;;;;;;0.87;0.47;;;;;;;;;;5092550;28;20048;-69
2024/01/02 01:41:45;;;;;;;3.00;0.38;;;;;;;;;;5092771;28;20383;-69
2024/01/02 01:44:11;;;;;;;0.65;0.20;;;;;;;;;;5092776;28;20470;-69
2024/01/02 01:46:36;;;;;;;0.38;0.10;;;;;;;;;;5091791;28;20027;-69
2024/01/02 01:49:02;;;;;;;0.10;0.10;;;;;;;;;;5092426;28;20020;-69
2024/01/02 01:51:28;;;;;;;0.20;0.10;;;;;;;;;;5092507;28;20470;-69
2024/01/02 01:53:53;;;;;;;0.38;0.15;;;;;;;;;;5092527;28;20016;-69
2024/01/02 01:56:19;;;;;;;0.10;0.10;;;;;;;;;;5092357;28;20476;-69
2024/01/02 01:58:44;;;;;;;1.45;0.30;;;;;;;;;;5092442;28;20020;-69
2024/01/02 02:01:09;;;;;;;0.43;0.10;;;;;;;;;;5071939;28;20027;-69
2024/01/02 02:03:35;;;;;;;0.15;0.10;;;;;;;;;;5083104;28;20063;-69
2024/01/02 02:06:00;;;;;;;0.95;0.25;;;;;;;;;;5084984;28;20020;-68
2024/01/02 02:08:25;;;;;;;0.00;0.00;;;;;;;;;;5090146;28;20032;-69
2024/01/02 02:10:51;;;;;;;1.27;0.20;;;;;;;;;;5092646;28;20270;-69
2024/01/02 02:13:16;;;;;;;0.43;0.15;;;;;;;;;;5091494;28;20035;-69
2024/01/02 02:15:42;;;;;;;0.80;0.20;;;;;;;;;;5092284;28;20098;-69
2024/01/02 02:18:07;;;;;;;2.20;0.10;;;;;;;;;;5091130;28;20028;-69
2024/01/02 02:20:32;;;;;;;0.10;0.10;;;;;;;;;;5090399;28;20048;-69
2024/01/02 02:22:57;;;;;;;0.83;0.20;;;;;;;;;;5091744;28;20106;-69
2024/01/02 02:25:23;;;;;;;0.30;0.13;;;;;;;;;;5092341;28;20306;-69
2024/01/02 02:27:48;;;;;;;0.10;0.10;;;;;;;;;;5091732;28;20301;-69
2024/01/02 02:30:13;;;;;;;0.15;0.10;;;;;;;;;;5091903;28;20281;-69
2024/01/02 02:32:39;;;;;;;0.38;0.17;;;;;;;;;;5091087;28;20028;-69
2024/01/02 02:35:04;;;;;;;0.30;0.10;;;;;;;;;;5092370;28;20022;-67
2024/01/02 02:37:30;;;;;;;0.00;0.00;;;;;;;;;;5091330;28;20074;-69
2024/01/02 02:39:55;;;;;;;0.10;0.03;;;;;;;;;;5092151;28;20024;-70
2024/01/02 02:42:20;;;;;;;0.00;0.00;;;;;;;;;;5084272;28;20103;-70
2024/01/02 02:44:45;;;;;;;0.30;0.10;;;;;;;;;;5091473;28;20360;-70
2024/01/02 02:47:11;;;;;;;0.30;0.10;;;;;;;;;;5091618;28;20313;-70
2024/01/02 02:49:39;;;;;;;1.77;0.10;;;;;;;;;;5092144;28;20326;-70
2024/01/02 02:52:05;;;;;;;0.50;0.10;;;;;;;;;;5091078;28;20019;-68
2024/01/02 02:54:30;;;;;;;2.38;0.20;;;;;;;;;;5091321;28;20032;-73
2024/01/02 02:56:56;;;;;;;0.00;0.00;;;;;;;;;;5087786;28;20017;-71
2024/01/02 02:59:21;;;;;;;0.38;0.10;;;;;;;;;;5091614;28;20286;-69
2024/01/02 03:01:46;;;;;;;0.35;0.13;;;;;;;;;;5091388;28;20118;-68
2024/01/02 03:04:11;;;;;;;0.20;0.10;;;;;;;;;;5091214;28;20020;-69
2024/01/02 03:06:37;;;;;;;0.30;0.10;;;;;;;;;;5091174;28;20365;-70
2024/01/02 03:09:03;;;;;;;0.00;0.00;;;;;;;;;;5082440;28;20026;-70
2024/01/02 03:11:28;;;;;;;0.25;0.10;;;;;;;;;;5090745;28;20091;-71
2024/01/02 03:13:53;;;;;;;0.25;0.10;;;;;;;;;;5091096;28;20488;-70
2024/01/02 03:16:19;;;;;;;0.77;0.20;;;;;;;;;;5093184;28;20020;-69
2024/01/02 03:18:44;;;;;;;0.43;0.13;;;;;;;;;;5095238;28;20273;-69
2024/01/02 03:21:12;;;;;;;0.10;0.10;;;;;;;;;;5093602;28;20544;-69
2024/01/02 03:23:38;;;;;;;0.95;0.20;;;;;;;;;;5089748;28;20274;-68
2024/01/02 03:26:03;;;;;;;0.50;0.15;;;;;;;;;;5094785;28;20031;-68
2024/01/02 03:28:29;;;;;;;1.98;0.10;;;;;;;;;;5094010;28;20114;-68
2024/01/02 03:30:54;;;;;;;0.75;0.10;;;;;;;;;;5094191;28;20355;-69
2024/01/02 03:33:20;;;;;;;0.30;0.13;;;;;;;;;;5094240;28;20058;-69
2024/01/02 03:35:45;;;;;;;0.00;0.00;;;;;;;;;;5081236;28;20138;-68
2024/01/02 03:38:10;;;;;;;0.30;0.10;;;;;;;;;;5094197;28;20028;-69
2024/01/02 03:40:36;;;;;;;0.43;0.20;;;;;;;;;;5094333;28;20282;-68
2024/01/02 03:43:01;;;;;;;0.10;0.10;;;;;;;;;;5094856;28;20058;-68
2024/01/02 03:45:26;;;;;;;0.88;0.10;;;;;;;;;;5094915;28;20024;-68
2024/01/02 03:47:51;;;;;;;0.17;0.10;;;;;;;;;;5094274;28;20016;-67
2024/01/02 03:50:16;;;;;;;0.00;0.00;;;;;;;;;;5094108;28;20438;-69
2024/01/02 03:52:42;;;;;;;0.17;0.03;;;;;;;;;;5095122;28;20640;-69
2024/01/02 03:55:07;;;;;;;0.30;0.03;;;;;;;;;;5094163;28;20652;-68
2024/01/02 03:57:34;;;;;;;0.10;0.00;;;;;;;;;;5094196;28;20024;-69
2024/01/02 03:59:59;;;;;;;0.05;0.05;;;;;;;;;;5093641;28;20028;-69
2024/01/02 04:02:24;;;;;;;3.30;0.10;;;;;;;;;;5094430;28;20378;-68
2024/01/02 04:04:50;;;;;;;0.45;0.10;;;;;;;;;;5082108;28;20028;-69
2024/01/02 04:07:15;;;;;;;0.00;0.00;;;;;;;;;;5085260;28;20115;-69
2024/01/02 04:09:41;;;;;;;0.20;0.10;;;;;;;;;;5094524;28;20319;-69
2024/01/02 04:12:06;;;;;;;0.20;0.10;;;;;;;;;;5094032;28;20024;-70
2024/01/02 04:14:31;;;;;;;0.22;0.10;;;;;;;;;;5093277;28;20030;-69
2024/01/02 04:16:56;;;;;;;0.20;0.10;;;;;;;;;;5093255;28;20074;-69
2024/01/02 04:19:22;;;;;;;0.20;0.10;;;;;;;;;;5094454;28;20266;-70
2024/01/02 04:21:47;;;;;;;1.63;0.10;;;;;;;;;;5093234;28;20347;-69
2024/01/02 04:24:13;;;;;;;0.00;0.00;;;;;;;;;;5093260;28;20270;-70
2024/01/02 04:26:39;;;;;;;0.75;0.17;;;;;;;;;;5093397;28;20115;-70
2024/01/02 04:29:04;;;;;;;0.20;0.10;;;;;;;;;;5094095;28;20106;-68
2024/01/02 04:31:29;;;;;;;0.30;0.10;;;;;;;;;;5093892;28;20035;-68
2024/01/02 04:33:54;;;;;;;0.20;0.10;;;;;;;;;;5093396;28;20270;-69
2024/01/02 04:36:19;;;;;;;0.28;0.10;;;;;;;;;;5092550;28;20259;-69
2024/01/02 04:38:45;;;;;;;0.10;0.00;;;;;;;;;;5093892;28;20024;-69
2024/01/02 04:41:11;;;;;;;0.20;0.07;;;;;;;;;;5094315;28;20458;-69
2024/01/02 04:43:37;;;;;;;0.20;0.10;;;;;;;;;;5093468;28;20262;-69
2024/01/02 04:46:03;;;;;;;0.13;0.08;;;;;;;;;;5093828;28;20016;-69
2024/01/02 04:48:28;;;;;;;0.30;0.10;;;;;;;;;;5093380;28;20077;-69
2024/01/02 04:50:53;;;;;;;0.47;0.10;;;;;;;;;;5093337;28;20012;-67
2024/01/02 04:53:18;;;;;;;0.00;0.00;;;;;;;;;;5092007;28;20098;-68
2024/01/02 04:55:44;;;;;;;0.00;0.00;;;;;;;;;;5093354;28;20400;-68
2024/01/02 04:58:09;;;;;;;0.00;0.00;;;;;;;;;;5093266;28;20353;-69
2024/01/02 05:00:34;;;;;;;0.10;0.10;;;;;;;;;;5093276;28;20063;-70
2024/01/02 05:03:00;;;;;;;0.40;0.10;;;;;;;;;;5093165;28;20369;-69
2024/01/02 05:05:25;;;;;;;0.85;0.10;;;;;;;;;;5093355;28;20386;-69
2024/01/02 05:07:51;;;;;;;0.05;0.00;;;;;;;;;;5092581;28;20038;-70
2024/01/02 05:10:16;;;;;;;0.17;0.10;;;;;;;;;;5092637;28;20103;-70
2024/01/02 05:12:41;;;;;;;0.20;0.10;;;;;;;;;;5092729;28;20360;-71
2024/01/02 05:15:07;;;;;;;0.07;0.07;;;;;;;;;;5092045;28;20020;-69
2024/01/02 05:17:32;;;;;;;0.20;0.10;;;;;;;;;;5092324;28;20286;-69
2024/01/02 05:19:57;;;;;;;0.20;0.10;;;;;;;;;;5092011;28;20020;-69
2024/01/02 05:22:23;;;;;;;0.30;0.10;;;;;;;;;;5092514;28;20297;-71
2024/01/02 05:24:48;;;;;;;0.40;0.17;;;;;;;;;;5093262;28;20278;-70
2024/01/02 05:27:15;;;;;;;0.30;0.10;;;;;;;;;;5092420;28;20266;-70
2024/01/02 05:29:41;;;;;;;0.38;0.10;;;;;;;;;;5093041;28;20294;-70
2024/01/02 05:32:06;;;;;;;0.50;0.20;;;;;;;;;;5092995;28;20399;-69
2024/01/02 05:34:31;;;;;;;0.52;0.28;;;;;;;;;;5093015;28;20450;-70
2024/01/02 05:36:56;;;;;;;1.35;0.40;;;;;;;;;;5092511;28;20035;-69
2024/01/02 05:39:21;;;;;;;1.87;0.80;;;;;;;;;;5091833;28;20020;-68
2024/01/02 05:41:47;;;;;;;2.10;1.00;;;;;;;;;;5093013;28;20287;-69
2024/01/02 05:44:12;;;;;;;3.00;1.55;;;;;;;;;;5092525;28;20282;-69
2024/01/02 05:46:38;;;;;;;1.83;0.80;;;;;;;;;;5086116;28;20028;-69
2024/01/02 05:49:03;;;;;;;0.38;0.25;;;;;;;;;;5090855;28;20075;-69
2024/01/02 05:51:28;;;;;;;1.90;0.80;;;;;;;;;;5092375;28;20179;-70
2024/01/02 05:53:53;;;;;;;1.30;0.60;;;;;;;;;;5089579;28;20065;-69
2024/01/02 05:56:19;;;;;;;1.73;0.93;;;;;;;;;;5091812;28;20286;-68
2024/01/02 05:58:44;;;;;;;1.17;0.43;;;;;;;;;;5091467;28;20258;-69
2024/01/02 06:01:10;;;;;;;1.00;0.43;;;;;;;;;;5092189;28;20073;-68
2024/01/02 06:03:35;;;;;;;1.05;0.40;;;;;;;;;;5092429;28;20020;-69
2024/01/02 06:06:01;;;;;;;0.60;0.30;;;;;;;;;;5074111;28;20473;-69
2024/01/02 06:08:26;;;;;;;1.10;0.47;;;;;;;;;;5092161;28;20036;-69
2024/01/02 06:10:51;;;;;;;1.23;0.40;;;;;;;;;;5092250;28;20290;-69
2024/01/02 06:13:16;;;;;;;0.60;0.30;;;;;;;;;;5084718;28;20519;-69
2024/01/02 06:15:41;;;;;;;0.63;0.27;;;;;;;;;;5091961;28;20747;-69
2024/01/02 06:18:07;;;;;;;0.50;0.20;;;;;;;;;;5092260;28;20870;-69
2024/01/02 06:20:32;;;;;;;0.43;0.20;;;;;;;;;;5090885;28;20407;-69
2024/01/02 06:22:57;;;;;;;0.40;0.20;;;;;;;;;;5091927;28;20028;-68
2024/01/02 06:25:22;;;;;;;0.27;0.10;;;;;;;;;;5091368;28;20617;-69
2024/01/02 06:27:48;;;;;;;0.60;0.30;;;;;;;;;;5091376;28;20675;-70
2024/01/02 06:30:13;;;;;;;0.10;0.10;;;;;;;;;;5090205;28;20020;-69
2024/01/02 06:32:38;;;;;;;0.38;0.10;;;;;;;;;;5090917;28;20357;-69
2024/01/02 06:35:03;;;;;;;0.40;0.20;;;;;;;;;;5091119;28;20466;-69
2024/01/02 06:37:29;;;;;;;0.50;0.20;;;;;;;;;;5091496;28;20293;-70
2024/01/02 06:39:55;;;;;;;0.47;0.10;;;;;;;;;;5087763;28;20091;-68
2024/01/02 06:42:20;;;;;;;0.35;0.20;;;;;;;;;;5088507;28;20027;-69
2024/01/02 06:44:45;;;;;;;1.70;0.40;;;;;;;;;;5092070;28;20441;-69
2024/01/02 06:47:11;;;;;;;1.00;0.30;;;;;;;;;;5091308;28;20024;-69
2024/01/02 06:49:36;;;;;;;0.93;0.40;;;;;;;;;;5091578;28;20036;-68
2024/01/02 06:52:01;;;;;;;1.30;0.60;;;;;;;;;;5090879;28;20178;-69
2024/01/02 06:54:26;;;;;;;0.30;0.13;;;;;;;;;;5091242;28;20294;-69
2024/01/02 06:56:52;;;;;;;0.30;0.10;;;;;;;;;;5091578;28;20524;-69
2024/01/02 06:59:18;;;;;;;0.73;0.30;;;;;;;;;;5091586;28;20747;-69
2024/01/02 07:01:44;;;;;;;0.45;0.20;;;;;;;;;;5091761;28;20309;-69
2024/01/02 07:04:09;;;;;;;0.52;0.13;;;;;;;;;;5090584;28;20536;-69
2024/01/02 07:06:34;;;;;;;0.77;0.20;;;;;;;;;;5080522;28;20035;-69
2024/01/02 07:08:59;;;;;;;0.45;0.20;;;;;;;;;;5072974;28;20103;-68
2024/01/02 07:11:25;;;;;;;0.20;0.10;;;;;;;;;;5091892;28;20482;-67
2024/01/02 07:13:50;;;;;;;0.87;0.30;;;;;;;;;;5075611;28;20265;-67
2024/01/02 07:16:15;;;;;;;0.40;0.10;;;;;;;;;;5045690;28;20365;-69
2024/01/02 07:18:40;;;;;;;0.57;0.20;;;;;;;;;;5049390;28;20781;-66
2024/01/02 07:21:06;;;;;;;0.73;0.22;;;;;;;;;;5038469;28;21250;-67
2024/01/02 07:23:31;;;;;;;0.43;0.20;;;;;;;;;;5066557;28;20024;-68
2024/01/02 07:25:56;;;;;;;0.80;0.30;;;;;;;;;;5091062;28;20059;-67
2024/01/02 07:28:22;;;;;;;0.73;0.30;;;;;;;;;;5081430;28;20293;-67
2024/01/02 07:30:48;;;;;;;0.73;0.30;;;;;;;;;;5059367;28;20028;-67
2024/01/02 07:33:14;;;;;;;1.10;0.40;;;;;;;;;;5075901;28;20075;-68
2024/01/02 07:35:39;;;;;;;0.95;0.30;;;;;;;;;;5084969;28;20024;-68
2024/01/02 07:38:04;;;;;;;0.80;0.30;;;;;;;;;;5090925;28;20026;-67
2024/01/02 07:40:30;;;;;;;1.47;0.30;;;;;;;;;;5091464;28;20326;-68
2024/01/02 07:42:55;;;;;;;0.95;0.40;;;;;;;;;;5088940;28;20369;-68
2024/01/02 07:45:20;;;;;;;0.88;0.30;;;;;;;;;;5090883;28;20034;-68
2024/01/02 07:47:45;;;;;;;1.10;0.30;;;;;;;;;;5090972;28;20418;-68
2024/01/02 07:50:11;;;;;;;1.65;0.50;;;;;;;;;;5091083;28;20875;-68
2024/01/02 07:52:37;;;;;;;2.00;0.40;;;;;;;;;;5090796;28;20016;-68
2024/01/02 07:55:02;;;;;;;1.02;0.32;;;;;;;;;;5091170;28;20039;-68
2024/01/02 07:57:28;;;;;;;0.80;0.30;;;;;;;;;;5089953;28;20027;-68
2024/01/02 07:59:53;;;;;;;0.60;0.20;;;;;;;;;;5091134;28;20046;-68
2024/01/02 08:02:18;;;;;;;1.08;0.40;;;;;;;;;;5091002;28;20082;-68
2024/01/02 08:04:44;;;;;;;0.50;0.20;;;;;;;;;;5083795;28;20008;-68
2024/01/02 08:07:09;;;;;;;0.95;0.38;;;;;;;;;;5083026;28;20278;-69
2024/01/02 08:09:34;;;;;;;0.90;0.28;;;;;;;;;;5093854;28;20020;-68
2024/01/02 08:12:00;;;;;;;0.63;0.30;;;;;;;;;;5064934;28;21073;-68
2024/01/02 08:14:25;;;;;;;0.70;0.32;;;;;;;;;;5055267;28;21016;-68
2024/01/02 08:16:50;;;;;;;0.87;0.40;;;;;;;;;;5075022;28;20075;-68
2024/01/02 08:19:16;;;;;;;0.40;0.20;;;;;;;;;;5079811;28;20318;-67
2024/01/02 08:21:41;;;;;;;0.93;0.30;;;;;;;;;;5093730;28;20027;-68
2024/01/02 08:24:07;;;;;;;1.50;0.30;;;;;;;;;;5083875;28;20035;-68
2024/01/02 08:26:32;;;;;;;0.95;0.32;;;;;;;;;;5093858;28;20281;-68
2024/01/02 08:28:58;;;;;;;1.00;0.50;;;;;;;;;;5072469;28;20039;-68
2024/01/02 08:31:24;;;;;;;2.50;0.63;;;;;;;;;;5093189;28;20359;-68
2024/01/02 08:33:49;;;;;;;1.60;0.70;;;;;;;;;;5080303;28;20020;-67
2024/01/02 08:36:14;;;;;;;1.58;0.68;;;;;;;;;;5093603;28;20088;-68
2024/01/02 08:38:40;;;;;;;1.25;0.57;;;;;;;;;;5093706;28;20027;-68
2024/01/02 08:41:05;;;;;;;1.42;0.50;;;;;;;;;;5093065;28;20500;-68
2024/01/02 08:43:31;;;;;;;1.17;0.43;;;;;;;;;;5093825;28;20166;-68
2024/01/02 08:45:59;;;;;;;1.70;0.50;;;;;;;;;;5093796;28;20072;-68
2024/01/02 08:48:24;;;;;;;0.30;0.20;;;;;;;;;;5089712;28;20383;-68
2024/01/02 08:50:49;;;;;;;1.80;0.63;;;;;;;;;;5083528;28;20505;-68
2024/01/02 08:53:15;;;;;;;1.00;0.40;;;;;;;;;;5086587;28;20031;-68
2024/01/02 08:55:40;;;;;;;0.88;0.40;;;;;;;;;;5090585;28;20294;-68
2024/01/02 08:58:06;;;;;;;1.13;0.45;;;;;;;;;;5091729;28;20027;-67
2024/01/02 09:00:31;;;;;;;1.52;0.57;;;;;;;;;;5090418;28;20108;-71
2024/01/02 09:02:57;;;;;;;1.30;0.47;;;;;;;;;;5049401;28;20135;-67
2024/01/02 09:05:23;;;;;;;0.50;0.28;;;;;;;;;;5056774;28;20028;-65
2024/01/02 09:07:48;;;;;;;0.93;0.38;;;;;;;;;;5062406;28;20807;-68
2024/01/02 09:10:13;;;;;;;1.10;0.40;;;;;;;;;;5076210;28;20043;-68
2024/01/02 09:12:39;;;;;;;0.95;0.40;;;;;;;;;;5052620;28;20827;-68
2024/01/02 09:15:05;;;;;;;0.47;0.20;;;;;;;;;;5057917;28;20039;-68
2024/01/02 09:17:30;;;;;;;0.85;0.20;;;;;;;;;;5058899;28;20896;-68
2024/01/02 09:19:55;;;;;;;0.30;0.10;;;;;;;;;;5073031;28;20031;-68
2024/01/02 09:22:23;;;;;;;0.75;0.20;;;;;;;;;;5072711;28;20028;-68
2024/01/02 09:24:50;;;;;;;1.13;0.22;;;;;;;;;;5087722;28;20043;-66
2024/01/02 09:27:16;;;;;;;0.68;0.20;;;;;;;;;;5086409;28;20028;-67
2024/01/02 09:29:41;;;;;;;0.10;0.10;;;;;;;;;;5076757;28;20830;-68
2024/01/02 09:32:07;;;;;;;0.30;0.10;;;;;;;;;;5048164;28;20051;-69
2024/01/02 09:34:32;;;;;;;0.13;0.00;;;;;;;;;;5041328;28;20842;-69
2024/01/02 09:36:57;;;;;;;0.63;0.20;;;;;;;;;;5060971;28;20024;-68
2024/01/02 09:39:23;;;;;;;0.52;0.20;;;;;;;;;;5039246;28;20055;-67
2024/01/02 09:41:51;;;;;;;0.20;0.10;;;;;;;;;;5047485;28;20055;-68
2024/01/02 09:44:16;;;;;;;0.38;0.10;;;;;;;;;;5049614;28;20066;-68
2024/01/02 09:46:44;;;;;;;0.37;0.10;;;;;;;;;;5049379;28;20782;-69
2024/01/02 09:49:09;;;;;;;0.20;0.10;;;;;;;;;;5056256;28;20286;-69
2024/01/02 09:51:58;;;;;;;0.20;0.10;;;;;;;;;;5048219;28;20043;-70
2024/01/02 09:54:23;;;;;;;0.28;0.10;;;;;;;;;;5004882;28;20040;-67
2024/01/02 09:57:01;;;;;;;0.67;0.10;;;;;;;;;;5044401;28;20027;-69
2024/01/02 09:59:46;;;;;;;0.70;0.20;;;;;;;;;;5056287;28;20130;-70
2024/01/02 10:02:12;;;;;;;;;;;;;;;;;;5050954;28;20120;-70
2024/01/02 10:04:59;;;;;;;2.20;0.10;;;;;;;;;;5026717;28;19912;-71
2024/01/02 10:07:27;;;;;;;0.30;0.10;;;;;;;;;;5054957;28;20075;-72
2024/01/02 10:10:06;;;;;;;0.10;0.08;;;;;;;;;;5048162;28;20930;-70
2024/01/02 10:12:38;;;;;;;0.35;0.10;;;;;;;;;;5047370;28;20043;-71
2024/01/02 10:15:06;;;;;;;0.65;0.20;;;;;;;;;;5051311;28;20035;-71
2024/01/02 10:17:37;;;;;;;0.32;0.10;;;;;;;;;;5047074;28;20166;-71
2024/01/02 10:20:06;;;;;;;0.95;0.15;;;;;;;;;;5046989;28;20093;-70
2024/01/02 10:22:38;;;;;;;1.17;0.35;;;;;;;;;;5052688;28;20020;-70
2024/01/02 10:25:07;;;;;;;0.73;0.20;;;;;;;;;;5047465;28;20140;-70
2024/01/02 10:27:35;;;;;;;0.68;0.20;;;;;;;;;;5048668;28;20016;-70
2024/01/02 10:30:07;;;;;;;0.50;0.15;;;;;;;;;;5091251;28;20218;-69
2024/01/02 10:33:02;;;;;;;0.22;0.10;;;;;;;;;;5091764;28;20052;-69
2024/01/02 10:35:27;;;;;;;;;;;;;;;;;;5091751;28;20016;-70
2024/01/02 10:38:10;;;;;;;0.93;0.17;;;;;;;;;;5089724;28;20401;-70
2024/01/02 10:40:43;;;;;;;0.70;0.22;;;;;;;;;;5079132;28;20085;-69
2024/01/02 10:43:17;;;;;;;0.43;0.10;;;;;;;;;;5091028;28;20027;-69
2024/01/02 10:45:42;;;;;;;;;;;;;;;;;;5091955;28;20031;-69
2024/01/02 10:48:32;;;;;;;0.45;0.15;;;;;;;;;;5091105;28;20006;-70
2024/01/02 10:51:03;;;;;;;1.98;0.20;;;;;;;;;;5083735;28;20510;-70
2024/01/02 10:53:38;;;;;;;3.72;0.32;;;;;;;;;;5090217;28;20023;-71
2024/01/02 10:56:04;;;;;;;1.58;0.20;;;;;;;;;;5083899;28;20047;-71
2024/01/02 10:58:34;;;;;;;0.30;0.20;;;;;;;;;;5091291;28;20024;-71
2024/01/02 11:01:04;;;;;;;0.38;0.10;;;;;;;;;;5073716;28;20756;-71
2024/01/02 11:03:32;;;;;;;0.55;0.15;;;;;;;;;;5090756;28;20513;-71
2024/01/02 11:06:04;;;;;;;0.80;0.22;;;;;;;;;;5091036;28;20016;-70
2024/01/02 11:08:52;;;;;;;0.60;0.20;;;;;;;;;;5090758;28;20036;-71
2024/01/02 11:11:18;;;;;;;0.55;0.20;;;;;;;;;;5089509;28;20036;-71
2024/01/02 11:13:46;;;;;;;0.40;0.15;;;;;;;;;;5084526;28;20036;-71
2024/01/02 11:16:18;;;;;;;1.08;0.30;;;;;;;;;;5091022;28;20043;-71
2024/01/02 11:18:45;;;;;;;0.50;0.20;;;;;;;;;;5090581;28;20054;-71
2024/01/02 11:21:13;;;;;;;0.25;0.10;;;;;;;;;;5089964;28;20123;-71
2024/01/02 11:23:43;;;;;;;0.17;0.10;;;;;;;;;;5090868;28;20040;-71
2024/01/02 11:26:14;;;;;;;0.47;0.17;;;;;;;;;;5091619;28;20028;-70
2024/01/02 11:28:40;;;;;;;0.25;0.10;;;;;;;;;;5090604;28;20115;-71
2024/01/02 11:31:06;;;;;;;0.68;0.17;;;;;;;;;;5090563;28;20044;-71
2024/01/02 11:33:49;;;;;;;2.83;0.20;;;;;;;;;;5079059;28;20029;-70
2024/01/02 11:36:17;;;;;;;0.68;0.17;;;;;;;;;;5091444;28;20390;-70
2024/01/02 11:38:55;;;;;;;0.85;0.13;;;;;;;;;;5094358;28;20020;-71
2024/01/02 11:41:38;;;;;;;0.45;0.10;;;;;;;;;;5094356;28;20044;-69
2024/01/02 11:44:08;;;;;;;0.47;0.20;;;;;;;;;;5074289;28;20366;-70
2024/01/02 11:46:35;;;;;;;0.50;0.17;;;;;;;;;;5094702;28;20028;-69
2024/01/02 11:49:20;;;;;;;0.10;0.10;;;;;;;;;;5094273;28;20047;-69
2024/01/02 11:51:51;;;;;;;0.77;0.15;;;;;;;;;;5091806;28;20462;-69
2024/01/02 11:54:25;;;;;;;0.45;0.10;;;;;;;;;;5094012;28;20423;-71
2024/01/02 11:56:51;;;;;;;0.32;0.20;;;;;;;;;;5092791;28;20505;-71
2024/01/02 11:59:19;;;;;;;0.30;0.10;;;;;;;;;;5093847;28;20055;-70
2024/01/02 12:01:47;;;;;;;0.13;0.10;;;;;;;;;;5094087;28;20027;-70
2024/01/02 12:04:31;;;;;;;1.13;0.20;;;;;;;;;;5094571;28;20059;-69
2024/01/02 12:07:15;;;;;;;0.28;0.10;;;;;;;;;;5089847;28;20057;-69
2024/01/02 12:09:43;;;;;;;0.88;0.20;;;;;;;;;;5093019;28;20036;-69
2024/01/02 12:12:18;;;;;;;0.17;0.10;;;;;;;;;;5093870;28;20526;-69
2024/01/02 12:14:51;;;;;;;0.60;0.10;;;;;;;;;;5094402;28;20024;-70
2024/01/02 12:17:18;;;;;;;0.13;0.10;;;;;;;;;;5089294;28;20099;-70
2024/01/02 12:19:46;;;;;;;0.20;0.05;;;;;;;;;;5092156;28;20028;-70
2024/01/02 12:22:11;;;;;;;0.35;0.17;;;;;;;;;;5082943;28;20084;-70
2024/01/02 12:24:38;;;;;;;0.75;0.20;;;;;;;;;;5087039;28;20434;-71
2024/01/02 12:27:03;;;;;;;0.55;0.20;;;;;;;;;;5094172;28;20020;-70
2024/01/02 12:29:29;;;;;;;0.52;0.17;;;;;;;;;;5093369;28;20138;-69
2024/01/02 12:31:57;;;;;;;0.53;0.17;;;;;;;;;;5093404;28;20761;-70
2024/01/02 12:34:30;;;;;;;0.20;0.10;;;;;;;;;;5092291;28;20644;-70
2024/01/02 12:37:04;;;;;;;1.27;0.22;;;;;;;;;;5093894;28;20042;-72
2024/01/02 12:39:32;;;;;;;;;;;;;;;;;;5084684;28;20031;-71
2024/01/02 12:42:00;;;;;;;0.45;0.20;;;;;;;;;;5088997;28;20289;-71
2024/01/02 12:44:27;;;;;;;0.55;0.20;;;;;;;;;;5084238;28;20038;-71
2024/01/02 12:46:57;;;;;;;0.40;0.10;;;;;;;;;;5092909;28;20020;-70
2024/01/02 12:49:26;;;;;;;0.10;0.10;;;;;;;;;;5094176;28;20493;-70
2024/01/02 12:51:51;;;;;;;0.32;0.10;;;;;;;;;;5089324;28;20039;-71
2024/01/02 12:54:21;;;;;;;1.17;0.30;;;;;;;;;;5092563;28;20031;-71
2024/01/02 12:56:51;;;;;;;0.43;0.20;;;;;;;;;;5092428;28;20059;-70
2024/01/02 12:59:17;;;;;;;0.70;0.20;;;;;;;;;;5084715;28;20043;-70
2024/01/02 13:01:42;;;;;;;1.13;0.32;;;;;;;;;;5093032;28;20027;-70
2024/01/02 13:04:12;;;;;;;0.40;0.10;;;;;;;;;;5093045;28;20036;-71
2024/01/02 13:06:39;;;;;;;0.30;0.10;;;;;;;;;;5092882;28;20020;-70
2024/01/02 13:09:04;;;;;;;0.93;0.25;;;;;;;;;;5093303;28;20050;-70
2024/01/02 13:11:30;;;;;;;0.75;0.30;;;;;;;;;;5092709;28;20780;-71
2024/01/02 13:13:55;;;;;;;0.50;0.20;;;;;;;;;;5092716;28;20081;-71
2024/01/02 13:16:21;;;;;;;1.80;0.20;;;;;;;;;;5093123;28;20044;-72
2024/01/02 13:18:48;;;;;;;1.05;0.30;;;;;;;;;;5090846;28;20316;-70
2024/01/02 13:21:13;;;;;;;0.82;0.22;;;;;;;;;;5086773;28;20140;-70
2024/01/02 13:23:51;;;;;;;0.68;0.20;;;;;;;;;;5092662;28;20525;-70
2024/01/02 13:26:16;;;;;;;0.77;0.28;;;;;;;;;;5087140;28;20028;-70
2024/01/02 13:28:42;;;;;;;0.30;0.10;;;;;;;;;;5092206;28;20032;-70
2024/01/02 13:31:08;;;;;;;1.13;0.28;;;;;;;;;;5068831;28;20309;-69
2024/01/02 13:33:41;;;;;;;0.15;0.10;;;;;;;;;;5092277;28;20016;-70
2024/01/02 13:36:07;;;;;;;0.45;0.22;;;;;;;;;;5092401;28;20177;-70
2024/01/02 13:38:44;;;;;;;0.25;0.10;;;;;;;;;;5091622;28;20095;-70
2024/01/02 13:41:09;;;;;;;0.35;0.10;;;;;;;;;;5091411;28;20032;-70
2024/01/02 13:43:35;;;;;;;0.55;0.20;;;;;;;;;;5092591;28;20020;-70
2024/01/02 13:46:13;;;;;;;0.60;0.20;;;;;;;;;;5091952;28;20095;-69
2024/01/02 13:48:39;;;;;;;1.20;0.20;;;;;;;;;;5091634;28;20061;-69
2024/01/02 13:51:06;;;;;;;0.25;0.15;;;;;;;;;;5086509;28;20496;-69
2024/01/02 13:53:51;;;;;;;0.35;0.15;;;;;;;;;;5084802;28;20114;-68
2024/01/02 13:56:16;;;;;;;0.57;0.20;;;;;;;;;;5087526;28;20459;-69
2024/01/02 13:58:54;;;;;;;0.80;0.32;;;;;;;;;;5091313;28;20115;-69
2024/01/02 14:01:33;;;;;;;2.22;0.10;;;;;;;;;;5087758;28;20042;-69
2024/01/02 14:04:04;;;;;;;0.77;0.20;;;;;;;;;;5092246;28;20378;-71
2024/01/02 14:06:33;;;;;;;0.45;0.20;;;;;;;;;;5091724;28;20157;-70
2024/01/02 14:09:15;;;;;;;0.28;0.10;;;;;;;;;;5092000;28;20110;-69
2024/01/02 14:11:57;;;;;;;1.02;0.20;;;;;;;;;;5087076;28;20489;-69
2024/01/02 14:14:38;;;;;;;0.40;0.20;;;;;;;;;;5092478;28;20038;-69
2024/01/02 14:17:06;;;;;;;0.47;0.20;;;;;;;;;;5091469;28;20028;-69
2024/01/02 14:19:35;;;;;;;0.32;0.10;;;;;;;;;;5092219;28;20051;-69
2024/01/02 14:22:06;;;;;;;1.40;0.32;;;;;;;;;;5090148;28;20059;-69
2024/01/02 14:24:35;;;;;;;0.40;0.10;;;;;;;;;;5091356;28;20494;-68
2024/01/02 14:27:00;;;;;;;0.38;0.15;;;;;;;;;;5089522;28;20054;-69
2024/01/02 14:29:30;;;;;;;0.20;0.10;;;;;;;;;;5091147;28;20032;-69
2024/01/02 14:32:14;;;;;;;0.55;0.20;;;;;;;;;;5092062;28;20016;-69
2024/01/02 14:34:50;;;;;;;0.38;0.20;;;;;;;;;;5073020;28;20428;-69
2024/01/02 14:37:15;;;;;;;0.55;0.20;;;;;;;;;;5091467;28;20110;-69
2024/01/02 14:39:50;;;;;;;0.30;0.10;;;;;;;;;;5086177;28;20127;-69
2024/01/02 14:42:18;;;;;;;0.65;0.20;;;;;;;;;;5048620;28;21113;-68
2024/01/02 14:44:55;;;;;;;0.20;0.10;;;;;;;;;;5041259;28;20095;-70